Tunker, Indiana
Current Conditions -  °F | °C
As of 7:55 PM on Monday 26 Jan 2015 (Local Time) from KHHG Reporting Station
Overcast Overcast  
Wind Chill: -7°   Ceiling: 6000
Heat Index: -7°   Visibility: 10mi
Dew Point: -14°   Wind: 0mph
Humidity: 60%   Direction: NA
Pressure: 29.94"   Gusts: NA
Location:  41.056°N, 85.6112°W
Report Text: KHHG 270055Z AUTO 00000KT 10SM OVC060 M07/M13 A2994 RMK AO2 T10701135
Loading
Personal Weather Stations






























Interactive Weather Map New forecast layout! Learn more

10-Day Weather Forecast

Advertisements
Track Severe Weather on mobile